Accueil
METAR-TAF:

METAR-TAF

Aéroports :

Colmenar Viejo, Espagne

latitude: 40-39N, longitude: 003-44W, altitude: -999 m

Observation

Le bulletin a été fait il y a 31 minutes, à 15:00 UTC
Vent 9 kt de ouest avec des rafales jusqu'à 19 kt
Température 12°C
Humidité 47%
Pression 1018 hPa
Visibilité 10 km ou plus
Quelques nuages à une hauteur de 4000 ft

METAR: LECV 261500Z 27009G19KT 9999 FEW040 12/01 Q1018

Heure: 16:31 (15:31 UTC)

Prévision

Le bulletin a été fait il y a 4 heures et 31 minutes, à 11:00 UTC
Prévision valable du 26 à 12 UTC au 27 à 12 UTC
Vent 10 kt de ouest/nord-ouest
Visibilité 10 km ou plus
Nuages épars à une hauteur de 3000 ft
Evoluant progressivement
du 26 à 18 UTC au 26 à 20 UTC
Vent 5 kt de direction variable
Probabilité 40% :
Temporairement
du 27 à 10 UTC au 27 à 12 UTC
Vent 10 kt de sud/sud-ouest

TAF: LECV 261100Z 2612/2712 30010KT 9999 SCT030 TX12/2615Z TN02/2706Z BECMG 2618/2620 VRB05KT PROB40 TEMPO 2710/2712 20010KT

Observations et prévisions météorologiques de plus de 4000 aéroports (messages METAR et TAF).

Les stations disponibles sont représentées par des disques jaunes et rouges sur la carte.

Passer la souris dessus pour voir le nom de la station.

Cliquer dessus pour voir les observations et prévisions météorologiques.

Pour changer de carte: cliquez sur les boutons verts avec une croix noire pour zoomer, sur le bouton vert avec un tiret pour effectuer un zoom arrière, ou sur les flèches vertes pour les cartes adjacentes.


METAR-TAF: